createdAt,value
2022-08-30T06:17:44.052Z,99237.06
2022-08-30T06:20:12.399Z,99232.13
2022-08-30T06:22:40.518Z,99222.88
2022-08-30T06:25:09.312Z,99225.50
2022-08-30T06:27:37.175Z,99236.84
2022-08-30T06:30:10.961Z,99227.16
2022-08-30T06:32:39.408Z,99228.53
2022-08-30T06:35:08.245Z,99234.72
2022-08-30T06:37:36.285Z,99238.00
2022-08-30T06:40:04.902Z,99241.75
2022-08-30T06:42:34.016Z,99230.78
2022-08-30T06:45:02.816Z,99230.91
2022-08-30T06:47:40.631Z,99229.81
2022-08-30T06:50:12.089Z,99238.22
2022-08-30T06:52:45.331Z,99242.94
2022-08-30T06:55:16.915Z,99237.91
2022-08-30T06:57:46.830Z,99233.56
2022-08-30T07:00:17.051Z,99223.84
2022-08-30T07:02:45.132Z,99231.97
2022-08-30T07:05:18.001Z,99230.75
2022-08-30T07:07:46.447Z,99229.75
2022-08-30T07:10:16.060Z,99243.84
2022-08-30T07:12:43.884Z,99237.88
2022-08-30T07:15:12.573Z,99230.19
2022-08-30T07:17:58.831Z,99236.91
2022-08-30T07:20:26.955Z,99233.59
2022-08-30T07:22:54.718Z,99233.94
2022-08-30T07:25:22.463Z,99235.00
2022-08-30T07:27:52.065Z,99236.88
2022-08-30T07:30:20.232Z,99236.66
2022-08-30T07:32:48.161Z,99229.97
2022-08-30T07:35:16.330Z,99234.97
2022-08-30T07:37:43.954Z,99234.78
2022-08-30T07:40:12.718Z,99233.78
2022-08-30T07:42:41.091Z,99232.56
2022-08-30T07:45:11.173Z,99239.63
2022-08-30T07:47:39.306Z,99241.03
2022-08-30T07:50:08.605Z,99232.09
2022-08-30T07:55:10.138Z,99237.44
2022-08-30T07:57:37.871Z,99244.75
2022-08-30T08:00:06.977Z,99251.56
2022-08-30T08:02:40.897Z,99240.69
2022-08-30T08:05:15.050Z,99240.25
2022-08-30T08:07:44.798Z,99243.44
2022-08-30T08:10:13.656Z,99239.56
2022-08-30T08:12:41.775Z,99245.09
2022-08-30T08:15:10.196Z,99242.53
2022-08-30T08:17:38.259Z,99243.63
2022-08-30T08:20:06.763Z,99245.97
2022-08-30T08:22:38.068Z,99243.91
2022-08-30T08:25:08.254Z,99246.78
2022-08-30T08:27:36.041Z,99249.88
2022-08-30T08:30:05.457Z,99236.34
2022-08-30T08:32:33.379Z,99255.06
2022-08-30T08:35:02.453Z,99252.44
2022-08-30T08:37:30.208Z,99248.78
2022-08-30T08:39:58.062Z,99255.28
2022-08-30T08:43:12.209Z,99251.09
2022-08-30T08:45:55.751Z,99253.41
2022-08-30T08:48:58.556Z,99249.03
2022-08-30T08:51:53.305Z,99252.38
2022-08-30T08:54:32.907Z,99258.13
2022-08-30T08:57:01.047Z,99249.75
2022-08-30T08:59:29.028Z,99252.41
2022-08-30T09:02:03.092Z,99246.13
2022-08-30T09:04:37.800Z,99248.97
2022-08-30T09:07:22.642Z,99245.59
2022-08-30T09:09:50.532Z,99247.66
2022-08-30T09:12:18.345Z,99244.03
2022-08-30T09:15:10.313Z,99244.06
2022-08-30T09:18:02.385Z,99241.44
2022-08-30T09:20:36.778Z,99240.91
2022-08-30T09:23:17.499Z,99239.63
2022-08-30T09:26:12.074Z,99230.50
2022-08-30T09:28:51.522Z,99231.78
2022-08-30T09:31:34.260Z,99239.84
2022-08-30T09:34:07.011Z,99229.44
2022-08-30T09:36:53.337Z,99236.19
2022-08-30T09:39:37.774Z,99242.69
2022-08-30T09:42:20.906Z,99232.31
2022-08-30T09:44:48.699Z,99231.25
2022-08-30T09:47:27.730Z,99227.84
2022-08-30T09:50:08.695Z,99231.03
2022-08-30T09:52:45.095Z,99229.72
2022-08-30T09:55:41.106Z,99228.16
2022-08-30T09:59:07.083Z,99228.41
2022-08-30T10:01:45.587Z,99231.22
2022-08-30T10:04:35.577Z,99223.72
2022-08-30T10:07:10.453Z,99233.38
2022-08-30T10:09:54.920Z,99220.91
2022-08-30T10:12:42.332Z,99229.22
2022-08-30T10:15:32.381Z,99226.34
2022-08-30T10:18:21.021Z,99223.75
2022-08-30T10:21:19.571Z,99223.22
2022-08-30T10:24:28.191Z,99222.72
2022-08-30T10:27:14.777Z,99218.03
2022-08-30T10:30:02.730Z,99215.16
2022-08-30T10:33:08.201Z,99218.53
2022-08-30T10:35:54.397Z,99211.75
2022-08-30T10:38:49.171Z,99206.56
2022-08-30T10:41:44.879Z,99205.53
2022-08-30T10:44:34.421Z,99206.56
2022-08-30T10:47:44.151Z,99200.84
2022-08-30T10:50:24.540Z,99208.16
2022-08-30T10:53:09.668Z,99204.50
2022-08-30T10:56:04.601Z,99203.97
2022-08-30T10:58:33.236Z,99197.44
2022-08-30T11:01:28.619Z,99195.59
2022-08-30T11:04:17.773Z,99194.72
2022-08-30T11:07:05.917Z,99182.91
2022-08-30T11:10:27.914Z,99179.72
2022-08-30T11:13:05.029Z,99178.09
2022-08-30T11:15:53.180Z,99178.25
2022-08-30T11:18:22.359Z,99167.97
2022-08-30T11:20:56.331Z,99159.34
2022-08-30T11:23:36.161Z,99147.97
2022-08-30T11:26:08.173Z,99150.47
2022-08-30T11:28:39.864Z,99155.53
2022-08-30T11:31:41.516Z,99147.59
2022-08-30T11:34:11.135Z,99146.44
2022-08-30T11:36:46.171Z,99141.66
2022-08-30T11:39:51.195Z,99130.59
2022-08-30T11:42:37.697Z,99135.88
2022-08-30T11:45:24.673Z,99139.41
2022-08-30T11:47:56.602Z,99125.00
2022-08-30T11:50:43.429Z,99127.75
2022-08-30T11:53:25.813Z,99127.03
2022-08-30T11:56:19.131Z,99122.25
2022-08-30T12:00:02.068Z,99107.00
2022-08-30T12:02:51.161Z,99109.75
2022-08-30T12:05:40.065Z,99108.56
2022-08-30T12:08:28.468Z,99095.66
2022-08-30T12:11:03.493Z,99097.69
2022-08-30T12:13:42.884Z,99089.28
2022-08-30T12:17:05.929Z,99087.03
2022-08-30T12:19:34.912Z,99087.09
2022-08-30T12:22:07.935Z,99083.44
2022-08-30T12:24:41.362Z,99082.47
2022-08-30T12:27:32.620Z,99080.31
2022-08-30T12:30:06.326Z,99071.44
2022-08-30T12:32:44.317Z,99070.38
2022-08-30T12:35:28.074Z,99063.13
2022-08-30T12:38:12.931Z,99061.56
2022-08-30T12:40:56.019Z,99061.41
2022-08-30T12:43:41.439Z,99052.50
2022-08-30T12:46:15.407Z,99050.91
2022-08-30T12:48:45.201Z,99047.22
2022-08-30T12:51:34.326Z,99029.09
2022-08-30T12:54:14.813Z,99041.38
2022-08-30T12:57:34.926Z,99035.72
2022-08-30T13:00:01.728Z,99029.72
2022-08-30T13:02:52.944Z,99023.34
2022-08-30T13:05:45.010Z,99016.22
2022-08-30T13:08:37.314Z,99015.09
2022-08-30T13:11:24.888Z,99018.75
2022-08-30T13:14:24.662Z,99019.53
2022-08-30T13:17:11.326Z,99017.88
2022-08-30T13:19:43.806Z,99013.34
2022-08-30T13:22:40.215Z,99008.13
2022-08-30T13:25:11.098Z,99009.69
2022-08-30T13:27:40.245Z,99013.72
2022-08-30T13:30:16.150Z,99009.47
2022-08-30T13:32:44.509Z,98997.97
2022-08-30T13:35:13.124Z,99004.47
2022-08-30T13:37:47.618Z,98987.81
2022-08-30T13:40:21.341Z,98990.72
2022-08-30T13:42:50.266Z,98991.28
2022-08-30T13:48:10.886Z,98983.34
2022-08-30T13:50:39.172Z,98979.66
2022-08-30T13:53:09.391Z,98964.03
2022-08-30T13:55:41.552Z,98972.53
2022-08-30T13:58:10.555Z,98968.34
2022-08-30T14:00:41.522Z,98961.38
2022-08-30T14:03:09.355Z,98960.03
2022-08-30T14:05:49.305Z,98956.66
2022-08-30T14:11:21.206Z,98959.53
2022-08-30T14:16:44.602Z,98949.16
2022-08-30T14:19:15.834Z,98946.41
2022-08-30T14:21:48.970Z,98950.84
2022-08-30T14:24:20.099Z,98948.84
2022-08-30T14:26:51.542Z,98946.34
2022-08-30T14:29:29.945Z,98937.38
2022-08-30T14:32:00.147Z,98931.13
2022-08-30T14:34:28.120Z,98935.84
2022-08-30T14:36:56.530Z,98927.09
2022-08-30T14:39:24.565Z,98930.19
2022-08-30T14:41:55.468Z,98930.00
2022-08-30T14:44:25.401Z,98923.13
2022-08-30T14:46:55.068Z,98938.22
2022-08-30T14:49:24.003Z,98936.31
2022-08-30T14:51:52.418Z,98924.75
2022-08-30T14:54:25.569Z,98925.53
2022-08-30T14:56:55.222Z,98920.06
2022-08-30T14:59:23.502Z,98920.53
2022-08-30T15:01:53.084Z,98923.50
2022-08-30T15:04:24.416Z,98920.53
2022-08-30T15:06:55.486Z,98922.13
2022-08-30T15:09:24.854Z,98921.81
2022-08-30T15:11:59.725Z,98921.06
2022-08-30T15:14:29.822Z,98912.69
2022-08-30T15:16:59.896Z,98921.94
2022-08-30T15:19:27.927Z,98906.00
2022-08-30T15:22:02.064Z,98914.34
2022-08-30T15:24:31.711Z,98908.94
2022-08-30T15:27:01.843Z,98903.41
2022-08-30T15:29:31.885Z,98900.59
2022-08-30T15:32:00.964Z,98902.81
2022-08-30T15:34:29.534Z,98916.00
2022-08-30T15:36:58.061Z,98901.53
2022-08-30T15:39:26.300Z,98902.00
2022-08-30T15:41:57.310Z,98910.72
2022-08-30T15:44:27.824Z,98908.66
2022-08-30T15:46:55.629Z,98900.75
2022-08-30T15:49:24.758Z,98903.50
2022-08-30T15:51:54.004Z,98896.44
2022-08-30T15:54:24.070Z,98894.59
2022-08-30T15:56:59.105Z,98903.31
2022-08-30T15:59:31.753Z,98905.81
2022-08-30T16:02:00.338Z,98903.50
2022-08-30T16:04:28.344Z,98901.94
2022-08-30T16:06:56.106Z,98898.84
2022-08-30T16:09:24.237Z,98905.16
2022-08-30T16:11:52.001Z,98899.91
2022-08-30T16:14:19.788Z,98899.75
2022-08-30T16:16:47.678Z,98893.16
2022-08-30T16:19:16.023Z,98899.53
2022-08-30T16:21:44.211Z,98900.00
2022-08-30T16:24:19.038Z,98909.31
2022-08-30T16:26:50.561Z,98898.59
2022-08-30T16:29:19.310Z,98899.84
2022-08-30T16:31:56.581Z,98894.72
2022-08-30T16:34:26.601Z,98896.00
2022-08-30T16:36:54.678Z,98896.66
2022-08-30T16:39:24.930Z,98897.78
2022-08-30T16:41:52.854Z,98908.03
2022-08-30T16:44:20.655Z,98904.75
2022-08-30T16:46:53.062Z,98912.56
2022-08-30T16:49:25.541Z,98918.84
2022-08-30T16:51:54.121Z,98918.84
2022-08-30T16:54:22.563Z,98918.94
2022-08-30T16:56:50.861Z,98919.13
2022-08-30T16:59:19.196Z,98911.94
2022-08-30T17:01:48.202Z,98914.56
2022-08-30T17:04:19.295Z,98917.03
2022-08-30T17:06:50.392Z,98912.41
2022-08-30T17:09:20.006Z,98923.72
2022-08-30T17:11:48.699Z,98919.16
2022-08-30T17:14:22.968Z,98919.28
2022-08-30T17:17:01.191Z,98927.28
2022-08-30T17:19:29.885Z,98927.31
2022-08-30T17:21:58.834Z,98927.19
2022-08-30T17:24:27.896Z,98933.28
2022-08-30T17:26:55.925Z,98933.81
2022-08-30T17:29:26.399Z,98926.09
2022-08-30T17:31:55.264Z,98928.56
2022-08-30T17:34:24.429Z,98934.38
2022-08-30T17:36:55.582Z,98940.75
